sensor_id;sensor_type;location;lat;lon;timestamp;P1;durP1;ratioP1;P2;durP2;ratioP2
20095;SDS011;10207;50.942;6.900;2023-03-09T00:00:04;37.00;;;21.92;;
20095;SDS011;10207;50.942;6.900;2023-03-09T00:02:37;34.00;;;20.90;;
20095;SDS011;10207;50.942;6.900;2023-03-09T00:05:04;38.10;;;20.77;;
20095;SDS011;10207;50.942;6.900;2023-03-09T00:07:30;32.33;;;21.05;;
20095;SDS011;10207;50.942;6.900;2023-03-09T00:09:56;38.30;;;22.17;;
20095;SDS011;10207;50.942;6.900;2023-03-09T00:12:22;37.00;;;21.48;;
20095;SDS011;10207;50.942;6.900;2023-03-09T00:14:52;41.47;;;23.40;;
20095;SDS011;10207;50.942;6.900;2023-03-09T00:17:18;43.87;;;24.27;;
20095;SDS011;10207;50.942;6.900;2023-03-09T00:19:44;44.90;;;25.42;;
20095;SDS011;10207;50.942;6.900;2023-03-09T00:22:10;36.00;;;22.90;;
20095;SDS011;10207;50.942;6.900;2023-03-09T00:24:36;42.47;;;22.58;;
20095;SDS011;10207;50.942;6.900;2023-03-09T00:27:09;38.78;;;22.17;;
20095;SDS011;10207;50.942;6.900;2023-03-09T00:29:35;36.70;;;22.55;;
20095;SDS011;10207;50.942;6.900;2023-03-09T00:32:02;42.72;;;22.48;;
20095;SDS011;10207;50.942;6.900;2023-03-09T00:34:31;42.22;;;24.05;;
20095;SDS011;10207;50.942;6.900;2023-03-09T00:36:57;42.35;;;24.67;;
20095;SDS011;10207;50.942;6.900;2023-03-09T00:39:23;37.75;;;22.10;;
20095;SDS011;10207;50.942;6.900;2023-03-09T00:41:49;32.00;;;20.65;;
20095;SDS011;10207;50.942;6.900;2023-03-09T00:44:15;36.50;;;22.20;;
20095;SDS011;10207;50.942;6.900;2023-03-09T00:46:41;38.80;;;22.47;;
20095;SDS011;10207;50.942;6.900;2023-03-09T00:49:08;41.85;;;22.15;;
20095;SDS011;10207;50.942;6.900;2023-03-09T00:51:35;37.92;;;23.33;;
20095;SDS011;10207;50.942;6.900;2023-03-09T00:54:04;44.90;;;24.40;;
20095;SDS011;10207;50.942;6.900;2023-03-09T00:56:31;41.30;;;22.25;;
20095;SDS011;10207;50.942;6.900;2023-03-09T00:58:57;43.05;;;24.38;;
20095;SDS011;10207;50.942;6.900;2023-03-09T01:01:23;40.00;;;23.45;;
20095;SDS011;10207;50.942;6.900;2023-03-09T01:03:49;37.97;;;21.83;;
20095;SDS011;10207;50.942;6.900;2023-03-09T01:06:16;41.80;;;23.67;;
20095;SDS011;10207;50.942;6.900;2023-03-09T01:08:42;51.37;;;26.27;;
20095;SDS011;10207;50.942;6.900;2023-03-09T01:11:10;42.42;;;25.02;;
20095;SDS011;10207;50.942;6.900;2023-03-09T01:13:36;45.73;;;25.43;;
20095;SDS011;10207;50.942;6.900;2023-03-09T01:16:02;46.03;;;24.98;;
20095;SDS011;10207;50.942;6.900;2023-03-09T01:18:29;45.37;;;27.03;;
20095;SDS011;10207;50.942;6.900;2023-03-09T01:20:55;46.17;;;25.88;;
20095;SDS011;10207;50.942;6.900;2023-03-09T01:23:21;52.13;;;26.80;;
20095;SDS011;10207;50.942;6.900;2023-03-09T01:25:47;59.50;;;28.63;;
20095;SDS011;10207;50.942;6.900;2023-03-09T01:28:13;62.80;;;28.35;;
20095;SDS011;10207;50.942;6.900;2023-03-09T01:30:39;67.10;;;30.65;;
20095;SDS011;10207;50.942;6.900;2023-03-09T01:33:05;63.20;;;28.60;;
20095;SDS011;10207;50.942;6.900;2023-03-09T01:35:31;61.95;;;29.52;;
20095;SDS011;10207;50.942;6.900;2023-03-09T01:38:00;63.05;;;28.30;;
20095;SDS011;10207;50.942;6.900;2023-03-09T01:40:27;76.30;;;31.00;;
20095;SDS011;10207;50.942;6.900;2023-03-09T01:42:57;74.20;;;30.90;;
20095;SDS011;10207;50.942;6.900;2023-03-09T01:47:51;70.80;;;30.23;;
20095;SDS011;10207;50.942;6.900;2023-03-09T01:50:21;69.57;;;29.27;;
20095;SDS011;10207;50.942;6.900;2023-03-09T01:52:49;80.80;;;29.77;;
20095;SDS011;10207;50.942;6.900;2023-03-09T01:55:18;78.43;;;30.83;;
20095;SDS011;10207;50.942;6.900;2023-03-09T01:57:53;66.07;;;29.48;;
20095;SDS011;10207;50.942;6.900;2023-03-09T02:00:22;75.73;;;29.50;;
20095;SDS011;10207;50.942;6.900;2023-03-09T02:03:20;71.37;;;27.70;;
20095;SDS011;10207;50.942;6.900;2023-03-09T02:05:46;74.25;;;29.25;;
20095;SDS011;10207;50.942;6.900;2023-03-09T02:08:15;65.17;;;25.73;;
20095;SDS011;10207;50.942;6.900;2023-03-09T02:10:45;56.13;;;24.17;;
20095;SDS011;10207;50.942;6.900;2023-03-09T02:13:14;68.23;;;27.37;;
20095;SDS011;10207;50.942;6.900;2023-03-09T02:15:40;55.20;;;27.00;;
20095;SDS011;10207;50.942;6.900;2023-03-09T02:18:07;52.27;;;26.23;;
20095;SDS011;10207;50.942;6.900;2023-03-09T02:23:39;51.53;;;24.87;;
20095;SDS011;10207;50.942;6.900;2023-03-09T02:26:14;48.43;;;24.07;;
20095;SDS011;10207;50.942;6.900;2023-03-09T02:28:41;44.47;;;22.07;;
20095;SDS011;10207;50.942;6.900;2023-03-09T02:31:07;41.67;;;21.83;;
20095;SDS011;10207;50.942;6.900;2023-03-09T02:33:34;52.87;;;25.37;;
20095;SDS011;10207;50.942;6.900;2023-03-09T02:36:01;53.33;;;26.97;;
20095;SDS011;10207;50.942;6.900;2023-03-09T02:38:30;61.53;;;28.00;;
20095;SDS011;10207;50.942;6.900;2023-03-09T02:40:57;67.90;;;28.70;;
20095;SDS011;10207;50.942;6.900;2023-03-09T02:43:26;68.43;;;28.87;;
20095;SDS011;10207;50.942;6.900;2023-03-09T02:45:54;72.67;;;30.80;;
20095;SDS011;10207;50.942;6.900;2023-03-09T02:48:20;74.27;;;29.50;;
20095;SDS011;10207;50.942;6.900;2023-03-09T02:50:46;71.47;;;29.23;;
20095;SDS011;10207;50.942;6.900;2023-03-09T02:53:12;83.77;;;31.10;;
20095;SDS011;10207;50.942;6.900;2023-03-09T02:55:38;76.17;;;30.23;;
20095;SDS011;10207;50.942;6.900;2023-03-09T02:58:06;91.50;;;32.63;;
20095;SDS011;10207;50.942;6.900;2023-03-09T03:00:32;89.87;;;32.93;;
20095;SDS011;10207;50.942;6.900;2023-03-09T03:02:59;96.67;;;32.73;;
20095;SDS011;10207;50.942;6.900;2023-03-09T03:05:28;96.27;;;32.27;;
20095;SDS011;10207;50.942;6.900;2023-03-09T03:07:54;95.90;;;33.53;;
20095;SDS011;10207;50.942;6.900;2023-03-09T03:10:22;105.80;;;33.93;;
20095;SDS011;10207;50.942;6.900;2023-03-09T03:12:48;100.17;;;32.10;;
20095;SDS011;10207;50.942;6.900;2023-03-09T03:15:14;130.23;;;34.90;;
20095;SDS011;10207;50.942;6.900;2023-03-09T03:17:40;118.87;;;34.37;;
20095;SDS011;10207;50.942;6.900;2023-03-09T03:20:07;118.17;;;31.90;;
20095;SDS011;10207;50.942;6.900;2023-03-09T03:22:40;118.80;;;33.70;;
20095;SDS011;10207;50.942;6.900;2023-03-09T03:25:06;137.93;;;35.10;;
20095;SDS011;10207;50.942;6.900;2023-03-09T03:27:34;117.33;;;32.67;;
20095;SDS011;10207;50.942;6.900;2023-03-09T03:30:00;132.77;;;34.20;;
20095;SDS011;10207;50.942;6.900;2023-03-09T03:32:29;138.00;;;33.17;;
20095;SDS011;10207;50.942;6.900;2023-03-09T03:34:55;139.00;;;33.93;;
20095;SDS011;10207;50.942;6.900;2023-03-09T03:37:21;158.67;;;35.77;;
20095;SDS011;10207;50.942;6.900;2023-03-09T03:39:48;158.00;;;36.30;;
20095;SDS011;10207;50.942;6.900;2023-03-09T03:42:14;154.40;;;36.97;;
20095;SDS011;10207;50.942;6.900;2023-03-09T03:44:40;163.23;;;38.43;;
20095;SDS011;10207;50.942;6.900;2023-03-09T03:47:08;178.47;;;38.60;;
20095;SDS011;10207;50.942;6.900;2023-03-09T03:49:34;147.13;;;35.43;;
20095;SDS011;10207;50.942;6.900;2023-03-09T03:52:04;168.30;;;38.83;;
20095;SDS011;10207;50.942;6.900;2023-03-09T03:54:30;146.23;;;34.57;;
20095;SDS011;10207;50.942;6.900;2023-03-09T03:56:57;137.10;;;36.13;;
20095;SDS011;10207;50.942;6.900;2023-03-09T03:59:23;166.93;;;38.67;;
20095;SDS011;10207;50.942;6.900;2023-03-09T04:01:50;170.97;;;38.73;;
20095;SDS011;10207;50.942;6.900;2023-03-09T04:04:16;166.97;;;36.83;;
20095;SDS011;10207;50.942;6.900;2023-03-09T04:06:47;180.57;;;37.40;;
20095;SDS011;10207;50.942;6.900;2023-03-09T04:09:14;171.70;;;39.10;;
20095;SDS011;10207;50.942;6.900;2023-03-09T04:11:40;173.83;;;39.23;;
20095;SDS011;10207;50.942;6.900;2023-03-09T04:14:08;167.17;;;35.17;;
20095;SDS011;10207;50.942;6.900;2023-03-09T04:16:34;157.67;;;37.37;;
20095;SDS011;10207;50.942;6.900;2023-03-09T04:19:03;172.70;;;37.03;;
20095;SDS011;10207;50.942;6.900;2023-03-09T04:21:29;193.43;;;39.90;;
20095;SDS011;10207;50.942;6.900;2023-03-09T04:23:55;191.47;;;42.03;;
20095;SDS011;10207;50.942;6.900;2023-03-09T04:26:21;282.93;;;45.33;;
20095;SDS011;10207;50.942;6.900;2023-03-09T04:28:56;207.97;;;43.13;;
20095;SDS011;10207;50.942;6.900;2023-03-09T04:31:22;202.13;;;41.87;;
20095;SDS011;10207;50.942;6.900;2023-03-09T04:33:48;209.07;;;42.70;;
20095;SDS011;10207;50.942;6.900;2023-03-09T04:36:17;221.83;;;41.93;;
20095;SDS011;10207;50.942;6.900;2023-03-09T04:38:46;236.23;;;44.20;;
20095;SDS011;10207;50.942;6.900;2023-03-09T04:41:12;218.83;;;44.77;;
20095;SDS011;10207;50.942;6.900;2023-03-09T04:43:41;197.77;;;39.97;;
20095;SDS011;10207;50.942;6.900;2023-03-09T04:46:08;211.43;;;42.53;;
20095;SDS011;10207;50.942;6.900;2023-03-09T04:48:34;193.87;;;41.80;;
20095;SDS011;10207;50.942;6.900;2023-03-09T04:51:01;193.23;;;41.27;;
20095;SDS011;10207;50.942;6.900;2023-03-09T04:53:29;195.03;;;41.63;;
20095;SDS011;10207;50.942;6.900;2023-03-09T04:55:55;179.37;;;38.90;;
20095;SDS011;10207;50.942;6.900;2023-03-09T04:58:21;179.47;;;38.53;;
20095;SDS011;10207;50.942;6.900;2023-03-09T05:00:48;173.40;;;37.90;;
20095;SDS011;10207;50.942;6.900;2023-03-09T05:03:18;136.30;;;34.80;;
20095;SDS011;10207;50.942;6.900;2023-03-09T05:05:48;164.17;;;34.13;;
20095;SDS011;10207;50.942;6.900;2023-03-09T05:08:15;167.40;;;37.20;;
20095;SDS011;10207;50.942;6.900;2023-03-09T05:10:41;185.90;;;39.77;;
20095;SDS011;10207;50.942;6.900;2023-03-09T05:13:07;166.33;;;36.70;;
20095;SDS011;10207;50.942;6.900;2023-03-09T05:15:33;189.87;;;37.43;;
20095;SDS011;10207;50.942;6.900;2023-03-09T05:17:59;186.97;;;41.87;;
20095;SDS011;10207;50.942;6.900;2023-03-09T05:20:28;197.13;;;38.63;;
20095;SDS011;10207;50.942;6.900;2023-03-09T05:23:00;188.13;;;45.57;;
20095;SDS011;10207;50.942;6.900;2023-03-09T05:25:26;166.47;;;37.57;;
20095;SDS011;10207;50.942;6.900;2023-03-09T05:27:52;158.50;;;35.90;;
20095;SDS011;10207;50.942;6.900;2023-03-09T05:30:19;179.83;;;37.17;;
20095;SDS011;10207;50.942;6.900;2023-03-09T05:32:48;183.93;;;39.20;;
20095;SDS011;10207;50.942;6.900;2023-03-09T05:35:17;145.40;;;31.80;;
20095;SDS011;10207;50.942;6.900;2023-03-09T05:37:44;144.43;;;33.17;;
20095;SDS011;10207;50.942;6.900;2023-03-09T05:40:17;155.73;;;32.23;;
20095;SDS011;10207;50.942;6.900;2023-03-09T05:42:48;144.63;;;32.60;;
20095;SDS011;10207;50.942;6.900;2023-03-09T05:45:14;135.00;;;32.10;;
20095;SDS011;10207;50.942;6.900;2023-03-09T05:47:40;140.90;;;33.77;;
20095;SDS011;10207;50.942;6.900;2023-03-09T05:50:06;149.30;;;35.20;;
20095;SDS011;10207;50.942;6.900;2023-03-09T05:52:32;139.60;;;32.73;;
20095;SDS011;10207;50.942;6.900;2023-03-09T05:54:59;164.23;;;33.73;;
20095;SDS011;10207;50.942;6.900;2023-03-09T05:57:25;149.53;;;32.57;;
20095;SDS011;10207;50.942;6.900;2023-03-09T05:59:53;120.20;;;28.87;;
20095;SDS011;10207;50.942;6.900;2023-03-09T06:02:19;137.17;;;30.80;;
20095;SDS011;10207;50.942;6.900;2023-03-09T06:04:48;122.83;;;29.47;;
20095;SDS011;10207;50.942;6.900;2023-03-09T06:07:14;132.53;;;30.97;;
20095;SDS011;10207;50.942;6.900;2023-03-09T06:09:44;108.80;;;28.20;;
20095;SDS011;10207;50.942;6.900;2023-03-09T06:12:16;118.77;;;27.80;;
20095;SDS011;10207;50.942;6.900;2023-03-09T06:14:47;107.37;;;28.43;;
20095;SDS011;10207;50.942;6.900;2023-03-09T06:17:13;102.23;;;27.83;;
20095;SDS011;10207;50.942;6.900;2023-03-09T06:19:41;111.03;;;27.70;;
20095;SDS011;10207;50.942;6.900;2023-03-09T06:22:08;108.17;;;26.30;;
20095;SDS011;10207;50.942;6.900;2023-03-09T06:24:34;126.07;;;28.30;;
20095;SDS011;10207;50.942;6.900;2023-03-09T06:27:03;110.20;;;28.53;;
20095;SDS011;10207;50.942;6.900;2023-03-09T06:29:33;100.60;;;28.30;;
20095;SDS011;10207;50.942;6.900;2023-03-09T06:32:00;117.97;;;29.63;;
20095;SDS011;10207;50.942;6.900;2023-03-09T06:34:29;132.77;;;37.17;;
20095;SDS011;10207;50.942;6.900;2023-03-09T06:36:55;107.50;;;29.27;;
20095;SDS011;10207;50.942;6.900;2023-03-09T06:39:21;128.60;;;28.30;;
20095;SDS011;10207;50.942;6.900;2023-03-09T06:41:48;127.53;;;31.20;;
20095;SDS011;10207;50.942;6.900;2023-03-09T06:44:47;125.70;;;29.87;;
20095;SDS011;10207;50.942;6.900;2023-03-09T06:47:15;132.70;;;30.33;;
20095;SDS011;10207;50.942;6.900;2023-03-09T06:49:45;107.73;;;27.73;;
20095;SDS011;10207;50.942;6.900;2023-03-09T06:52:15;115.93;;;27.23;;
20095;SDS011;10207;50.942;6.900;2023-03-09T06:54:41;160.43;;;30.83;;
20095;SDS011;10207;50.942;6.900;2023-03-09T06:57:13;100.83;;;26.43;;
20095;SDS011;10207;50.942;6.900;2023-03-09T06:59:40;111.47;;;26.40;;
20095;SDS011;10207;50.942;6.900;2023-03-09T07:02:07;112.03;;;25.87;;
20095;SDS011;10207;50.942;6.900;2023-03-09T07:04:35;109.40;;;27.10;;
20095;SDS011;10207;50.942;6.900;2023-03-09T07:07:01;109.50;;;25.13;;
20095;SDS011;10207;50.942;6.900;2023-03-09T07:09:27;100.47;;;24.70;;
20095;SDS011;10207;50.942;6.900;2023-03-09T07:11:53;90.10;;;24.20;;
20095;SDS011;10207;50.942;6.900;2023-03-09T07:14:20;92.60;;;22.70;;
20095;SDS011;10207;50.942;6.900;2023-03-09T07:16:56;79.47;;;23.83;;
20095;SDS011;10207;50.942;6.900;2023-03-09T07:19:22;74.90;;;21.73;;
20095;SDS011;10207;50.942;6.900;2023-03-09T07:21:48;87.50;;;23.80;;
20095;SDS011;10207;50.942;6.900;2023-03-09T07:24:14;88.40;;;24.63;;
20095;SDS011;10207;50.942;6.900;2023-03-09T07:26:40;91.10;;;25.10;;
20095;SDS011;10207;50.942;6.900;2023-03-09T07:29:06;84.83;;;24.33;;
20095;SDS011;10207;50.942;6.900;2023-03-09T07:31:32;81.10;;;23.13;;
20095;SDS011;10207;50.942;6.900;2023-03-09T07:33:58;81.67;;;24.90;;
20095;SDS011;10207;50.942;6.900;2023-03-09T07:36:25;77.77;;;22.47;;
20095;SDS011;10207;50.942;6.900;2023-03-09T07:38:51;76.07;;;21.07;;
20095;SDS011;10207;50.942;6.900;2023-03-09T07:41:17;65.90;;;20.37;;
20095;SDS011;10207;50.942;6.900;2023-03-09T07:43:43;46.90;;;18.17;;
20095;SDS011;10207;50.942;6.900;2023-03-09T07:46:18;41.10;;;17.23;;
20095;SDS011;10207;50.942;6.900;2023-03-09T07:48:44;48.28;;;18.35;;
20095;SDS011;10207;50.942;6.900;2023-03-09T07:51:11;38.47;;;15.57;;
20095;SDS011;10207;50.942;6.900;2023-03-09T07:53:38;33.00;;;14.60;;
20095;SDS011;10207;50.942;6.900;2023-03-09T07:56:05;29.08;;;13.57;;
20095;SDS011;10207;50.942;6.900;2023-03-09T07:58:32;32.63;;;15.53;;
20095;SDS011;10207;50.942;6.900;2023-03-09T08:00:58;27.63;;;13.00;;
20095;SDS011;10207;50.942;6.900;2023-03-09T08:03:24;27.80;;;13.60;;
20095;SDS011;10207;50.942;6.900;2023-03-09T08:05:50;29.50;;;13.80;;
20095;SDS011;10207;50.942;6.900;2023-03-09T08:08:21;28.60;;;13.48;;
20095;SDS011;10207;50.942;6.900;2023-03-09T08:10:47;30.02;;;14.20;;
20095;SDS011;10207;50.942;6.900;2023-03-09T08:13:13;26.17;;;12.63;;
20095;SDS011;10207;50.942;6.900;2023-03-09T08:15:39;25.07;;;12.87;;
20095;SDS011;10207;50.942;6.900;2023-03-09T08:18:05;24.50;;;12.83;;
20095;SDS011;10207;50.942;6.900;2023-03-09T08:20:32;20.85;;;12.20;;
20095;SDS011;10207;50.942;6.900;2023-03-09T08:22:58;23.77;;;11.50;;
20095;SDS011;10207;50.942;6.900;2023-03-09T08:25:24;21.15;;;11.07;;
20095;SDS011;10207;50.942;6.900;2023-03-09T08:27:50;24.45;;;11.98;;
20095;SDS011;10207;50.942;6.900;2023-03-09T08:30:17;21.67;;;11.23;;
20095;SDS011;10207;50.942;6.900;2023-03-09T08:32:47;24.17;;;11.30;;
20095;SDS011;10207;50.942;6.900;2023-03-09T08:35:17;21.92;;;12.10;;
20095;SDS011;10207;50.942;6.900;2023-03-09T08:37:43;24.13;;;12.43;;
20095;SDS011;10207;50.942;6.900;2023-03-09T08:40:09;26.13;;;12.70;;
20095;SDS011;10207;50.942;6.900;2023-03-09T08:42:35;20.92;;;12.45;;
20095;SDS011;10207;50.942;6.900;2023-03-09T08:45:01;21.65;;;12.00;;
20095;SDS011;10207;50.942;6.900;2023-03-09T08:47:29;22.65;;;12.43;;
20095;SDS011;10207;50.942;6.900;2023-03-09T08:49:55;24.50;;;10.75;;
20095;SDS011;10207;50.942;6.900;2023-03-09T08:52:21;17.30;;;9.52;;
20095;SDS011;10207;50.942;6.900;2023-03-09T08:54:47;14.57;;;9.75;;
20095;SDS011;10207;50.942;6.900;2023-03-09T08:57:15;19.15;;;10.30;;
20095;SDS011;10207;50.942;6.900;2023-03-09T08:59:41;20.13;;;10.10;;
20095;SDS011;10207;50.942;6.900;2023-03-09T09:02:13;21.40;;;9.05;;
20095;SDS011;10207;50.942;6.900;2023-03-09T09:04:45;20.27;;;10.90;;
20095;SDS011;10207;50.942;6.900;2023-03-09T09:07:12;20.73;;;9.53;;
20095;SDS011;10207;50.942;6.900;2023-03-09T09:09:38;19.30;;;9.73;;
20095;SDS011;10207;50.942;6.900;2023-03-09T09:12:04;17.63;;;10.33;;
20095;SDS011;10207;50.942;6.900;2023-03-09T09:14:31;16.60;;;10.23;;
20095;SDS011;10207;50.942;6.900;2023-03-09T09:16:58;20.05;;;10.52;;
20095;SDS011;10207;50.942;6.900;2023-03-09T09:19:24;17.40;;;9.75;;
20095;SDS011;10207;50.942;6.900;2023-03-09T09:21:50;16.80;;;10.23;;
20095;SDS011;10207;50.942;6.900;2023-03-09T09:24:18;18.20;;;11.23;;
20095;SDS011;10207;50.942;6.900;2023-03-09T09:26:44;17.27;;;10.35;;
20095;SDS011;10207;50.942;6.900;2023-03-09T09:29:10;20.40;;;10.43;;
20095;SDS011;10207;50.942;6.900;2023-03-09T09:31:37;20.90;;;12.00;;
20095;SDS011;10207;50.942;6.900;2023-03-09T09:34:05;24.35;;;10.90;;
20095;SDS011;10207;50.942;6.900;2023-03-09T09:36:31;17.27;;;11.10;;
20095;SDS011;10207;50.942;6.900;2023-03-09T09:38:59;16.45;;;9.77;;
20095;SDS011;10207;50.942;6.900;2023-03-09T09:41:27;13.32;;;8.75;;
20095;SDS011;10207;50.942;6.900;2023-03-09T09:43:59;14.77;;;7.85;;
20095;SDS011;10207;50.942;6.900;2023-03-09T09:46:26;12.30;;;7.00;;
20095;SDS011;10207;50.942;6.900;2023-03-09T09:48:54;13.65;;;8.60;;
20095;SDS011;10207;50.942;6.900;2023-03-09T09:56:24;11.60;;;7.20;;
20095;SDS011;10207;50.942;6.900;2023-03-09T09:59:00;11.73;;;8.02;;
20095;SDS011;10207;50.942;6.900;2023-03-09T10:01:45;14.45;;;8.00;;
20095;SDS011;10207;50.942;6.900;2023-03-09T10:04:14;13.82;;;8.75;;
20095;SDS011;10207;50.942;6.900;2023-03-09T10:06:43;12.50;;;8.90;;
20095;SDS011;10207;50.942;6.900;2023-03-09T10:09:16;15.07;;;8.60;;
20095;SDS011;10207;50.942;6.900;2023-03-09T10:11:49;15.07;;;8.05;;
20095;SDS011;10207;50.942;6.900;2023-03-09T10:16:44;11.63;;;7.88;;
20095;SDS011;10207;50.942;6.900;2023-03-09T10:19:14;11.10;;;6.82;;
20095;SDS011;10207;50.942;6.900;2023-03-09T10:21:56;9.80;;;6.32;;
20095;SDS011;10207;50.942;6.900;2023-03-09T10:24:24;11.48;;;6.82;;
20095;SDS011;10207;50.942;6.900;2023-03-09T10:26:51;11.27;;;7.30;;
20095;SDS011;10207;50.942;6.900;2023-03-09T10:29:42;10.32;;;7.03;;
20095;SDS011;10207;50.942;6.900;2023-03-09T10:32:07;12.02;;;6.28;;
20095;SDS011;10207;50.942;6.900;2023-03-09T10:34:39;10.75;;;7.22;;
20095;SDS011;10207;50.942;6.900;2023-03-09T10:37:15;9.63;;;6.28;;
20095;SDS011;10207;50.942;6.900;2023-03-09T10:39:43;12.27;;;6.35;;
20095;SDS011;10207;50.942;6.900;2023-03-09T10:42:20;10.23;;;6.57;;
20095;SDS011;10207;50.942;6.900;2023-03-09T10:44:58;9.70;;;6.22;;
20095;SDS011;10207;50.942;6.900;2023-03-09T10:47:25;14.75;;;7.43;;
20095;SDS011;10207;50.942;6.900;2023-03-09T10:50:07;14.77;;;7.53;;
20095;SDS011;10207;50.942;6.900;2023-03-09T10:52:33;13.32;;;7.57;;
20095;SDS011;10207;50.942;6.900;2023-03-09T10:54:59;13.63;;;6.50;;
20095;SDS011;10207;50.942;6.900;2023-03-09T10:57:26;11.20;;;6.72;;
20095;SDS011;10207;50.942;6.900;2023-03-09T10:59:55;13.10;;;7.60;;
20095;SDS011;10207;50.942;6.900;2023-03-09T11:02:29;9.88;;;6.57;;
20095;SDS011;10207;50.942;6.900;2023-03-09T11:04:56;10.57;;;6.00;;
20095;SDS011;10207;50.942;6.900;2023-03-09T11:07:22;11.88;;;7.53;;
20095;SDS011;10207;50.942;6.900;2023-03-09T11:09:50;9.63;;;6.65;;
20095;SDS011;10207;50.942;6.900;2023-03-09T11:14:54;13.25;;;7.13;;
20095;SDS011;10207;50.942;6.900;2023-03-09T11:17:32;9.77;;;6.00;;
20095;SDS011;10207;50.942;6.900;2023-03-09T11:22:58;9.07;;;6.45;;
20095;SDS011;10207;50.942;6.900;2023-03-09T11:25:41;10.85;;;6.20;;
20095;SDS011;10207;50.942;6.900;2023-03-09T11:30:57;8.65;;;5.72;;
20095;SDS011;10207;50.942;6.900;2023-03-09T11:33:23;9.27;;;6.03;;
20095;SDS011;10207;50.942;6.900;2023-03-09T11:35:51;9.35;;;6.68;;
20095;SDS011;10207;50.942;6.900;2023-03-09T11:38:18;13.57;;;7.35;;
20095;SDS011;10207;50.942;6.900;2023-03-09T11:40:48;17.15;;;9.02;;
20095;SDS011;10207;50.942;6.900;2023-03-09T11:43:23;14.18;;;7.50;;
20095;SDS011;10207;50.942;6.900;2023-03-09T11:45:51;10.18;;;6.40;;
20095;SDS011;10207;50.942;6.900;2023-03-09T11:48:21;9.80;;;6.53;;
20095;SDS011;10207;50.942;6.900;2023-03-09T11:50:54;8.82;;;6.03;;
20095;SDS011;10207;50.942;6.900;2023-03-09T11:53:34;15.23;;;8.50;;
20095;SDS011;10207;50.942;6.900;2023-03-09T11:56:08;48.78;;;14.73;;
20095;SDS011;10207;50.942;6.900;2023-03-09T11:58:38;12.15;;;7.25;;
20095;SDS011;10207;50.942;6.900;2023-03-09T12:01:08;14.13;;;8.60;;
20095;SDS011;10207;50.942;6.900;2023-03-09T12:03:36;19.48;;;9.30;;
20095;SDS011;10207;50.942;6.900;2023-03-09T12:06:08;16.58;;;9.57;;
20095;SDS011;10207;50.942;6.900;2023-03-09T12:08:41;13.25;;;8.40;;
20095;SDS011;10207;50.942;6.900;2023-03-09T12:11:14;39.97;;;14.27;;
20095;SDS011;10207;50.942;6.900;2023-03-09T12:13:48;14.23;;;9.05;;
20095;SDS011;10207;50.942;6.900;2023-03-09T12:18:59;15.48;;;9.40;;
20095;SDS011;10207;50.942;6.900;2023-03-09T12:21:33;16.27;;;9.25;;
20095;SDS011;10207;50.942;6.900;2023-03-09T12:26:44;24.20;;;12.10;;
20095;SDS011;10207;50.942;6.900;2023-03-09T12:31:36;13.13;;;8.52;;
20095;SDS011;10207;50.942;6.900;2023-03-09T12:34:23;12.48;;;8.32;;
20095;SDS011;10207;50.942;6.900;2023-03-09T12:36:49;11.45;;;8.05;;
20095;SDS011;10207;50.942;6.900;2023-03-09T12:47:19;16.58;;;10.27;;
20095;SDS011;10207;50.942;6.900;2023-03-09T12:49:50;13.30;;;9.02;;
20095;SDS011;10207;50.942;6.900;2023-03-09T12:54:56;14.55;;;9.68;;
20095;SDS011;10207;50.942;6.900;2023-03-09T12:57:23;18.42;;;11.65;;
20095;SDS011;10207;50.942;6.900;2023-03-09T12:59:49;21.98;;;12.65;;
20095;SDS011;10207;50.942;6.900;2023-03-09T13:02:49;18.60;;;12.75;;
20095;SDS011;10207;50.942;6.900;2023-03-09T13:07:50;18.08;;;11.93;;
20095;SDS011;10207;50.942;6.900;2023-03-09T13:10:26;19.13;;;11.00;;
20095;SDS011;10207;50.942;6.900;2023-03-09T13:12:56;17.60;;;12.10;;
20095;SDS011;10207;50.942;6.900;2023-03-09T13:15:23;14.55;;;10.05;;
20095;SDS011;10207;50.942;6.900;2023-03-09T13:18:24;21.60;;;11.23;;
20095;SDS011;10207;50.942;6.900;2023-03-09T13:20:42;16.50;;;10.38;;
20095;SDS011;10207;50.942;6.900;2023-03-09T13:23:13;18.95;;;11.27;;
20095;SDS011;10207;50.942;6.900;2023-03-09T13:25:55;19.23;;;11.98;;
20095;SDS011;10207;50.942;6.900;2023-03-09T13:28:26;14.20;;;10.18;;
20095;SDS011;10207;50.942;6.900;2023-03-09T13:30:55;18.38;;;12.02;;
20095;SDS011;10207;50.942;6.900;2023-03-09T13:33:23;16.80;;;10.40;;
20095;SDS011;10207;50.942;6.900;2023-03-09T13:36:05;17.88;;;10.98;;
20095;SDS011;10207;50.942;6.900;2023-03-09T13:38:32;15.75;;;11.38;;
20095;SDS011;10207;50.942;6.900;2023-03-09T13:41:00;21.38;;;12.32;;
20095;SDS011;10207;50.942;6.900;2023-03-09T13:43:30;20.95;;;13.00;;
20095;SDS011;10207;50.942;6.900;2023-03-09T13:46:09;18.65;;;13.63;;
20095;SDS011;10207;50.942;6.900;2023-03-09T13:48:44;20.55;;;12.30;;
20095;SDS011;10207;50.942;6.900;2023-03-09T13:51:45;19.40;;;11.00;;
20095;SDS011;10207;50.942;6.900;2023-03-09T13:54:03;17.75;;;12.48;;
20095;SDS011;10207;50.942;6.900;2023-03-09T13:56:29;16.90;;;11.68;;
20095;SDS011;10207;50.942;6.900;2023-03-09T13:58:57;17.05;;;12.30;;
20095;SDS011;10207;50.942;6.900;2023-03-09T14:01:27;18.02;;;12.50;;
20095;SDS011;10207;50.942;6.900;2023-03-09T14:03:55;19.88;;;13.98;;
20095;SDS011;10207;50.942;6.900;2023-03-09T14:06:28;17.15;;;10.98;;
20095;SDS011;10207;50.942;6.900;2023-03-09T14:08:55;17.27;;;11.70;;
20095;SDS011;10207;50.942;6.900;2023-03-09T14:11:23;16.50;;;10.52;;
20095;SDS011;10207;50.942;6.900;2023-03-09T14:13:54;15.88;;;10.38;;
20095;SDS011;10207;50.942;6.900;2023-03-09T14:16:25;15.43;;;10.75;;
20095;SDS011;10207;50.942;6.900;2023-03-09T14:18:53;18.88;;;11.40;;
20095;SDS011;10207;50.942;6.900;2023-03-09T14:21:26;16.63;;;12.07;;
20095;SDS011;10207;50.942;6.900;2023-03-09T14:23:53;15.73;;;11.45;;
20095;SDS011;10207;50.942;6.900;2023-03-09T14:26:24;12.93;;;8.38;;
20095;SDS011;10207;50.942;6.900;2023-03-09T14:28:57;14.27;;;9.48;;
20095;SDS011;10207;50.942;6.900;2023-03-09T14:31:24;15.35;;;10.43;;
20095;SDS011;10207;50.942;6.900;2023-03-09T14:34:32;13.73;;;10.80;;
20095;SDS011;10207;50.942;6.900;2023-03-09T14:36:39;15.52;;;11.43;;
20095;SDS011;10207;50.942;6.900;2023-03-09T14:39:30;16.83;;;11.57;;
20095;SDS011;10207;50.942;6.900;2023-03-09T14:44:35;15.55;;;10.48;;
20095;SDS011;10207;50.942;6.900;2023-03-09T14:47:01;20.67;;;10.70;;
20095;SDS011;10207;50.942;6.900;2023-03-09T14:49:27;14.43;;;9.93;;
20095;SDS011;10207;50.942;6.900;2023-03-09T14:51:53;17.05;;;10.35;;
20095;SDS011;10207;50.942;6.900;2023-03-09T14:54:19;13.93;;;8.68;;
20095;SDS011;10207;50.942;6.900;2023-03-09T14:56:45;14.25;;;9.63;;
20095;SDS011;10207;50.942;6.900;2023-03-09T14:59:11;15.05;;;10.05;;
20095;SDS011;10207;50.942;6.900;2023-03-09T15:01:39;15.43;;;9.90;;
20095;SDS011;10207;50.942;6.900;2023-03-09T15:04:05;13.68;;;9.40;;
20095;SDS011;10207;50.942;6.900;2023-03-09T15:06:35;11.77;;;8.90;;
20095;SDS011;10207;50.942;6.900;2023-03-09T15:09:03;11.80;;;8.82;;
20095;SDS011;10207;50.942;6.900;2023-03-09T15:11:29;13.95;;;8.45;;
20095;SDS011;10207;50.942;6.900;2023-03-09T15:13:55;16.13;;;10.45;;